Time;durP1;ratioP1;P1;durP2;ratioP2;P2;SDS_P1;SDS_P2;PMS_P1;PMS_P2;Temp;Humidity;BMP_temperature;BMP_pressure;BME280_temperature;BME280_humidity;BME280_pressure;Samples;Min_cycle;Max_cycle;Signal;HPM_P1;HPM_P2
2022/07/02 00:01:20;;;;;;;9.00;2.13;;;;;;;14.05;100.00;102103.38;10426386;28;20064;-81
2022/07/02 00:06:21;;;;;;;3.45;1.90;;;;;;;14.09;100.00;102104.69;10459285;28;20041;-81
2022/07/02 00:11:21;;;;;;;10.50;2.28;;;;;;;14.13;100.00;102105.97;10457952;28;20029;-82
2022/07/02 00:16:22;;;;;;;2.17;1.70;;;;;;;14.10;100.00;102109.13;10457971;28;20033;-82
2022/07/02 00:21:23;;;;;;;1.73;1.52;;;;;;;14.12;100.00;102104.28;10474982;28;20032;-81
2022/07/02 00:26:34;;;;;;;1.27;1.27;;;;;;;14.10;100.00;102095.50;10464219;28;20032;-80
2022/07/02 00:31:35;;;;;;;1.63;1.52;;;;;;;14.09;100.00;102099.22;10463156;28;20025;-81
2022/07/02 00:36:36;;;;;;;2.80;1.75;;;;;;;14.04;100.00;102089.94;10457065;28;20095;-81
2022/07/02 00:41:37;;;;;;;7.13;2.15;;;;;;;14.07;100.00;102098.59;10457136;28;20029;-80
2022/07/02 00:46:37;;;;;;;2.05;1.17;;;;;;;14.03;100.00;102089.09;10440518;28;20458;-82
2022/07/02 00:51:38;;;;;;;6.15;2.33;;;;;;;14.05;100.00;102089.75;10456779;28;20078;-80
2022/07/02 00:56:38;;;;;;;3.15;1.75;;;;;;;14.01;100.00;102096.63;10477520;28;20125;-82
2022/07/02 01:01:38;;;;;;;1.40;1.30;;;;;;;13.95;100.00;102098.22;10464761;28;20083;-82
2022/07/02 01:06:39;;;;;;;3.13;1.58;;;;;;;13.89;100.00;102087.25;10475974;28;20068;-81
2022/07/02 01:11:40;;;;;;;2.17;1.58;;;;;;;13.77;99.02;102089.63;10456528;28;20080;-81
2022/07/02 01:16:40;;;;;;;2.30;1.50;;;;;;;13.70;99.99;102089.53;10455895;28;20037;-81
2022/07/02 01:22:19;;;;;;;3.58;1.38;;;;;;;13.66;100.00;102087.38;10457065;28;20032;-81
2022/07/02 01:27:21;;;;;;;2.85;1.98;;;;;;;13.66;100.00;102090.13;10463028;28;20147;-81
2022/07/02 01:32:21;;;;;;;5.20;1.88;;;;;;;13.59;100.00;102087.31;10473046;28;20119;-82
2022/07/02 01:37:22;;;;;;;4.25;1.92;;;;;;;13.58;100.00;102091.03;10456789;28;20040;-82
2022/07/02 01:42:22;;;;;;;7.80;1.73;;;;;;;13.49;100.00;102084.00;10456462;28;20055;-81
2022/07/02 01:47:22;;;;;;;8.18;2.28;;;;;;;13.45;100.00;102090.84;10455014;28;20029;-81
2022/07/02 01:52:23;;;;;;;1.42;1.42;;;;;;;13.45;100.00;102093.56;10438537;28;20036;-81
2022/07/02 01:57:23;;;;;;;3.60;1.95;;;;;;;13.41;100.00;102095.84;10456985;28;20040;-81
2022/07/02 02:02:24;;;;;;;2.03;1.90;;;;;;;13.40;100.00;102098.72;10455586;28;20552;-81
2022/07/02 02:07:24;;;;;;;1.60;1.40;;;;;;;13.39;100.00;102097.88;10456244;28;20029;-81
2022/07/02 02:12:25;;;;;;;1.40;1.30;;;;;;;13.30;100.00;102092.72;10455219;28;20044;-82
2022/07/02 02:17:25;;;;;;;1.55;1.20;;;;;;;13.24;100.00;102088.81;10477456;28;20041;-81
2022/07/02 02:22:26;;;;;;;4.47;1.58;;;;;;;13.21;100.00;102084.63;10478699;28;20059;-81
2022/07/02 02:27:26;;;;;;;4.68;2.03;;;;;;;13.17;100.00;102087.88;10469701;28;20041;-81
2022/07/02 02:32:26;;;;;;;6.97;2.05;;;;;;;13.09;100.00;102079.81;10476520;28;20222;-74
2022/07/02 02:37:27;;;;;;;6.38;1.67;;;;;;;13.10;100.00;102082.34;10464707;28;20381;-74
2022/07/02 02:42:27;;;;;;;5.47;2.00;;;;;;;13.11;100.00;102092.19;10478789;28;20400;-74
2022/07/02 02:47:28;;;;;;;1.77;1.63;;;;;;;13.05;100.00;102095.69;10464209;28;20048;-73
2022/07/02 02:52:28;;;;;;;8.35;1.77;;;;;;;13.03;100.00;102093.13;10462995;28;20059;-74
2022/07/02 02:57:28;;;;;;;6.80;2.10;;;;;;;13.02;100.00;102099.59;10462187;28;20477;-73
2022/07/02 03:02:29;;;;;;;3.15;1.80;;;;;;;12.97;100.00;102087.59;10463288;28;20362;-73
2022/07/02 03:07:29;;;;;;;1.20;1.00;;;;;;;12.98;100.00;102091.97;10462442;28;20064;-73
2022/07/02 03:12:30;;;;;;;2.50;2.30;;;;;;;13.00;100.00;102092.66;10463295;28;20341;-74
2022/07/02 03:17:30;;;;;;;1.92;1.83;;;;;;;12.98;100.00;102089.25;10462338;28;20139;-72
2022/07/02 03:22:31;;;;;;;3.20;2.20;;;;;;;12.93;100.00;102095.25;10462253;28;20040;-73
2022/07/02 03:27:31;;;;;;;3.53;2.22;;;;;;;12.90;100.00;102089.34;10461661;28;20055;-73
2022/07/02 03:32:32;;;;;;;7.03;2.95;;;;;;;12.92;100.00;102099.03;10460166;28;20032;-74
2022/07/02 03:37:32;;;;;;;2.25;2.00;;;;;;;12.92;100.00;102111.75;10477320;28;20044;-74
2022/07/02 03:42:32;;;;;;;3.80;1.73;;;;;;;12.91;100.00;102110.91;10461541;28;20025;-74
2022/07/02 03:47:33;;;;;;;2.30;2.15;;;;;;;12.90;100.00;102113.81;10461368;28;20491;-73
2022/07/02 03:52:34;;;;;;;4.32;2.15;;;;;;;12.89;100.00;102121.13;10461097;28;20147;-74
2022/07/02 03:57:35;;;;;;;7.93;2.67;;;;;;;12.88;100.00;102118.59;10462234;28;20472;-74
2022/07/02 04:02:36;;;;;;;8.15;2.47;;;;;;;12.92;100.00;102122.63;10474869;28;20052;-74
2022/07/02 04:07:36;;;;;;;5.03;2.20;;;;;;;13.00;100.00;102114.41;10459632;28;20033;-75
2022/07/02 04:12:36;;;;;;;5.20;2.40;;;;;;;13.04;100.00;102116.56;10459955;28;20037;-74
2022/07/02 04:17:37;;;;;;;8.20;2.40;;;;;;;13.11;100.00;102127.53;10460263;28;20388;-74
2022/07/02 04:22:37;;;;;;;6.57;3.00;;;;;;;13.17;100.00;102129.53;10475929;28;20116;-74
2022/07/02 04:27:38;;;;;;;3.00;2.17;;;;;;;13.22;100.00;102137.16;10458229;28;20067;-74
2022/07/02 04:32:38;;;;;;;4.00;2.40;;;;;;;13.27;100.00;102123.84;10458856;28;20033;-73
2022/07/02 04:37:38;;;;;;;9.80;1.98;;;;;;;13.34;100.00;102126.72;10458859;28;20033;-74
2022/07/02 04:42:39;;;;;;;7.63;1.90;;;;;;;13.73;100.00;102134.59;10458027;28;20041;-74
2022/07/02 04:47:39;;;;;;;3.63;1.70;;;;;;;14.97;100.00;102119.03;10464793;28;20047;-73
2022/07/02 04:52:40;;;;;;;11.30;3.38;;;;;;;15.88;100.00;102126.38;10471632;28;20036;-73
2022/07/02 04:57:40;;;;;;;3.47;2.70;;;;;;;16.45;100.00;102125.13;10458587;28;20061;-74
2022/07/02 05:02:41;;;;;;;4.10;2.35;;;;;;;16.96;100.00;102116.38;10457851;28;20404;-74
2022/07/02 05:07:41;;;;;;;2.88;1.63;;;;;;;17.43;99.42;102125.41;10458571;28;20033;-74
2022/07/02 05:12:41;;;;;;;1.65;1.55;;;;;;;17.89;99.07;102121.72;10457662;28;20040;-74
2022/07/02 05:17:42;;;;;;;4.07;2.45;;;;;;;18.40;98.71;102122.75;10456931;28;20041;-74
2022/07/02 05:22:42;;;;;;;2.85;1.98;;;;;;;18.62;97.42;102123.25;10458038;28;20029;-74
2022/07/02 05:27:43;;;;;;;8.95;2.10;;;;;;;18.88;96.00;102125.00;10439986;28;20056;-74
2022/07/02 05:32:43;;;;;;;2.45;1.70;;;;;;;19.30;95.38;102117.84;10455256;28;20472;-75
2022/07/02 05:37:43;;;;;;;3.65;1.88;;;;;;;19.43;92.29;102122.38;10456263;28;20033;-74
2022/07/02 05:42:44;;;;;;;3.15;2.22;;;;;;;19.74;93.23;102124.19;10457837;28;20064;-74
2022/07/02 05:47:44;;;;;;;1.65;1.38;;;;;;;20.05;91.86;102117.69;10457241;28;20037;-74
2022/07/02 05:52:45;;;;;;;3.45;2.05;;;;;;;20.29;84.91;102126.03;10465523;28;20037;-74
2022/07/02 05:57:45;;;;;;;6.32;2.30;;;;;;;20.53;81.83;102127.84;10482845;28;20071;-72
2022/07/02 06:02:45;;;;;;;4.78;2.13;;;;;;;20.72;85.30;102130.56;10491048;28;20045;-74
2022/07/02 06:07:46;;;;;;;2.22;1.40;;;;;;;21.08;84.07;102121.28;10489199;28;20523;-73
2022/07/02 06:12:47;;;;;;;1.65;1.23;;;;;;;21.37;77.96;102122.25;10477353;28;20049;-74
2022/07/02 06:17:48;;;;;;;1.65;1.52;;;;;;;21.71;75.62;102130.75;10466382;28;20423;-74
2022/07/02 06:22:48;;;;;;;4.57;1.25;;;;;;;22.00;72.36;102126.97;10463855;28;20041;-73
2022/07/02 06:27:48;;;;;;;2.55;2.13;;;;;;;22.12;72.74;102137.97;10465104;28;20040;-74
2022/07/02 06:32:49;;;;;;;2.60;1.50;;;;;;;22.35;70.54;102155.56;10479478;28;20048;-73
2022/07/02 06:37:49;;;;;;;1.48;1.10;;;;;;;22.46;65.65;102150.00;10479446;28;20404;-74
2022/07/02 06:42:50;;;;;;;1.30;1.17;;;;;;;22.50;64.87;102144.81;10480042;28;20459;-74
2022/07/02 06:47:50;;;;;;;2.15;1.40;;;;;;;23.19;70.20;102150.19;10464103;28;20124;-74
2022/07/02 06:52:50;;;;;;;4.35;1.83;;;;;;;23.71;68.27;102143.50;10464566;28;20036;-74
2022/07/02 06:57:51;;;;;;;7.50;2.05;;;;;;;23.56;57.37;102138.59;10461690;28;20033;-74
2022/07/02 07:02:51;;;;;;;2.08;1.45;;;;;;;23.77;57.66;102140.59;10462266;28;20110;-74
2022/07/02 07:07:52;;;;;;;1.33;1.05;;;;;;;23.97;51.66;102131.72;10460006;28;20404;-74
2022/07/02 07:12:52;;;;;;;2.70;2.08;;;;;;;24.27;56.47;102128.44;10466837;28;20107;-75
2022/07/02 07:17:54;;;;;;;6.22;1.65;;;;;;;24.68;57.80;102126.13;10469988;28;20037;-74
2022/07/02 07:22:54;;;;;;;8.07;1.73;;;;;;;25.51;61.64;102131.25;10478527;28;20041;-73
2022/07/02 07:27:54;;;;;;;1.42;1.35;;;;;;;25.73;52.82;102120.00;10460944;28;20033;-74
2022/07/02 07:32:55;;;;;;;2.67;1.25;;;;;;;25.55;52.05;102114.91;10462520;28;20029;-74
2022/07/02 07:37:59;;;;;;;1.63;1.10;;;;;;;26.09;54.72;102134.03;10461444;28;20037;-75
2022/07/02 07:43:00;;;;;;;1.67;1.00;;;;;;;26.41;52.41;102122.75;10475921;28;20396;-75
2022/07/02 07:48:00;;;;;;;1.20;0.93;;;;;;;26.41;52.94;102129.13;10460713;28;20043;-71
2022/07/02 07:53:01;;;;;;;1.17;1.08;;;;;;;26.62;50.09;102135.59;10461717;28;20040;-72
2022/07/02 07:58:01;;;;;;;3.40;1.05;;;;;;;26.92;48.59;102122.00;10460461;28;20365;-73
2022/07/02 08:03:02;;;;;;;1.20;1.10;;;;;;;27.04;40.98;102120.59;10459971;28;20055;-66
2022/07/02 08:08:02;;;;;;;1.73;1.10;;;;;;;27.22;47.12;102123.94;10460094;28;20037;-72
2022/07/02 08:13:03;;;;;;;3.60;1.05;;;;;;;27.53;48.56;102119.97;10459768;28;20025;-73
2022/07/02 08:18:03;;;;;;;0.80;0.80;;;;;;;27.70;36.84;102122.47;10458113;28;20047;-73
2022/07/02 08:23:04;;;;;;;2.13;1.35;;;;;;;26.90;44.92;102122.28;10459159;28;20445;-73
2022/07/02 08:28:04;;;;;;;0.85;0.85;;;;;;;27.16;39.75;102125.09;10459052;28;20041;-72
2022/07/02 08:33:04;;;;;;;0.90;0.90;;;;;;;27.46;43.67;102121.41;10458958;28;20037;-73
2022/07/02 08:38:05;;;;;;;0.77;0.77;;;;;;;27.53;43.76;102116.38;10459392;28;20441;-73
2022/07/02 08:43:05;;;;;;;1.33;0.80;;;;;;;27.13;37.26;102116.19;10474021;28;20086;-72
2022/07/02 08:48:07;;;;;;;0.70;0.70;;;;;;;27.09;41.24;102115.06;10458724;28;20489;-75
2022/07/02 08:53:08;;;;;;;0.77;0.77;;;;;;;27.21;37.52;102111.16;10457538;28;20079;-72
2022/07/02 08:58:08;;;;;;;1.13;0.85;;;;;;;27.88;40.26;102104.31;10457398;28;20094;-74
2022/07/02 09:03:09;;;;;;;4.70;1.60;;;;;;;27.83;34.87;102123.00;10456572;28;20052;-74
2022/07/02 09:08:10;;;;;;;1.45;1.10;;;;;;;26.96;37.37;102104.47;10457414;28;20040;-73
2022/07/02 09:13:11;;;;;;;0.80;0.80;;;;;;;27.04;38.23;102097.53;10472158;28;20484;-74
2022/07/02 09:18:12;;;;;;;1.20;1.08;;;;;;;28.24;39.49;102090.22;10459069;28;20041;-74
2022/07/02 09:23:31;;;;;;;2.28;0.70;;;;;;;28.62;37.68;102094.16;10458267;28;20396;-74
2022/07/02 09:28:31;;;;;;;1.45;1.08;;;;;;;28.17;37.56;102090.50;10456894;28;20051;-73
2022/07/02 09:33:31;;;;;;;5.40;1.35;;;;;;;28.02;35.14;102085.88;10456093;28;20487;-71
2022/07/02 09:38:32;;;;;;;2.75;0.90;;;;;;;27.97;34.64;102088.66;10458902;28;20025;-71
2022/07/02 09:43:32;;;;;;;1.70;1.30;;;;;;;28.12;36.76;102073.84;10460669;28;20499;-70
2022/07/02 09:48:33;;;;;;;1.85;1.25;;;;;;;28.11;32.54;102068.53;10458396;28;20033;-71
2022/07/02 09:53:33;;;;;;;1.40;1.40;;;;;;;28.08;37.94;102063.56;10456193;28;20033;-71
2022/07/02 09:58:33;;;;;;;1.15;1.00;;;;;;;28.44;37.43;102062.22;10438173;28;20075;-70
2022/07/02 10:03:56;;;;;;;0.90;0.88;;;;;;;28.87;35.36;102062.41;10455568;28;20064;-71
2022/07/02 10:08:56;;;;;;;1.15;1.10;;;;;;;29.48;38.00;102074.91;10456486;28;20041;-70
2022/07/02 10:13:57;;;;;;;1.42;1.27;;;;;;;30.10;31.56;102069.41;10456059;28;20029;-68
2022/07/02 10:19:00;;;;;;;2.17;1.38;;;;;;;29.77;36.09;102052.53;10454203;28;20460;-68
2022/07/02 10:24:01;;;;;;;1.65;1.27;;;;;;;30.35;35.87;102055.06;10454931;28;20028;-66
2022/07/02 10:29:02;;;;;;;1.30;1.13;;;;;;;29.40;31.13;102048.50;10453944;28;20465;-66
2022/07/02 10:34:19;;;;;;;2.50;1.45;;;;;;;29.72;35.29;102035.84;10454955;28;20384;-67
2022/07/02 10:39:20;;;;;;;2.30;1.10;;;;;;;30.15;30.40;102037.75;10456501;28;20025;-66
2022/07/02 10:44:20;;;;;;;0.93;0.93;;;;;;;30.00;29.84;102041.63;10478457;28;20075;-66
2022/07/02 10:49:26;;;;;;;1.40;1.17;;;;;;;30.02;31.61;102023.41;10463215;28;20037;-65
2022/07/02 10:54:33;;;;;;;3.55;1.35;;;;;;;30.91;31.35;102032.91;10462635;28;20395;-66
2022/07/02 10:59:36;;;;;;;0.70;0.70;;;;;;;30.44;29.70;102034.81;10462417;28;20060;-66
2022/07/02 11:04:36;;;;;;;3.80;1.13;;;;;;;30.28;31.27;102031.41;10460921;28;20079;-66
2022/07/02 11:09:57;;;;;;;1.63;1.20;;;;;;;30.64;30.33;102023.28;10462139;28;20488;-67
2022/07/02 11:14:58;;;;;;;2.72;1.67;;;;;;;29.68;34.80;102032.00;10462091;28;20404;-66
2022/07/02 11:19:58;;;;;;;0.50;0.50;;;;;;;29.01;28.74;102017.16;10462179;28;20052;-66
2022/07/02 11:24:59;;;;;;;1.45;1.35;;;;;;;28.63;33.59;102014.16;10384435;28;20497;-66
2022/07/02 11:30:01;;;;;;;5.38;1.20;;;;;;;29.64;31.81;102016.97;10476986;28;20193;-65
2022/07/02 11:35:01;;;;;;;2.10;0.85;;;;;;;29.79;28.42;101994.41;10461028;28;20032;-65
2022/07/02 11:40:02;;;;;;;6.32;1.02;;;;;;;28.70;32.21;101992.34;10460997;28;20540;-66
2022/07/02 11:45:02;;;;;;;0.90;0.90;;;;;;;29.49;30.62;101998.44;10459422;28;20464;-65
2022/07/02 11:50:03;;;;;;;4.97;1.92;;;;;;;30.18;32.42;101979.31;10458772;28;20036;-65
2022/07/02 11:55:04;;;;;;;1.98;0.82;;;;;;;29.85;30.42;101958.88;10460316;28;20071;-66
2022/07/02 12:00:05;;;;;;;1.10;1.02;;;;;;;27.94;34.39;101968.69;10460250;28;20036;-66
2022/07/02 12:05:16;;;;;;;1.20;1.20;;;;;;;28.38;31.94;101965.03;10463179;28;20064;-66
2022/07/02 12:10:17;;;;;;;1.77;1.10;;;;;;;28.32;30.68;101964.22;10463493;28;20040;-66
2022/07/02 12:15:17;;;;;;;0.85;0.85;;;;;;;27.64;34.01;101958.56;10460952;28;20045;-66
2022/07/02 12:20:18;;;;;;;2.78;1.35;;;;;;;28.32;34.36;101967.00;10457757;28;20083;-66
2022/07/02 12:25:19;;;;;;;5.25;1.63;;;;;;;28.76;32.56;101960.50;10459044;28;20037;-66
2022/07/02 12:30:19;;;;;;;1.48;1.10;;;;;;;28.82;32.30;101956.53;10458588;28;20432;-66
2022/07/02 12:35:20;;;;;;;1.13;1.13;;;;;;;29.96;32.23;101954.78;10458055;28;20060;-66
2022/07/02 12:40:21;;;;;;;1.65;1.42;;;;;;;30.54;32.01;101948.81;10460174;28;20121;-67
2022/07/02 12:45:36;;;;;;;0.77;0.77;;;;;;;29.40;32.13;101952.78;10474054;28;20465;-67
2022/07/02 12:50:38;;;;;;;3.25;1.55;;;;;;;30.12;30.17;101935.81;10473588;28;20114;-69
2022/07/02 12:55:39;;;;;;;1.17;1.17;;;;;;;30.96;31.93;101926.53;10457656;28;20032;-67
2022/07/02 13:00:41;;;;;;;1.27;1.17;;;;;;;29.87;30.68;101921.16;10456308;28;20116;-68
2022/07/02 13:05:55;;;;;;;1.95;1.38;;;;;;;29.99;31.47;101923.44;10456962;28;20037;-67
2022/07/02 13:10:58;;;;;;;1.08;1.02;;;;;;;28.73;34.12;101922.88;10456492;28;20044;-66
2022/07/02 13:15:58;;;;;;;7.15;1.20;;;;;;;28.86;33.94;101918.56;10456461;28;20048;-67
2022/07/02 13:20:59;;;;;;;1.75;1.38;;;;;;;28.90;33.06;101904.84;10457629;28;20052;-67
2022/07/02 13:25:59;;;;;;;3.22;0.95;;;;;;;28.80;32.61;101913.34;10456101;28;20037;-66
2022/07/02 13:30:59;;;;;;;1.33;1.23;;;;;;;28.59;33.69;101902.44;10456611;28;20029;-69
2022/07/02 13:36:00;;;;;;;4.15;1.48;;;;;;;28.82;33.35;101906.34;10454273;28;20404;-67
2022/07/02 13:41:00;;;;;;;1.10;1.10;;;;;;;27.77;35.33;101903.13;10457072;28;20040;-69
2022/07/02 13:46:00;;;;;;;1.47;1.10;;;;;;;27.11;36.68;101895.94;10456125;28;20297;-67
2022/07/02 13:51:01;;;;;;;1.00;0.90;;;;;;;28.44;34.27;101889.47;10456058;28;20270;-68
2022/07/02 13:56:01;;;;;;;2.63;1.30;;;;;;;28.64;35.38;101882.03;10456695;28;20273;-68
2022/07/02 14:01:02;;;;;;;2.95;1.52;;;;;;;27.97;35.10;101882.63;10471431;28;20077;-69
2022/07/02 14:06:02;;;;;;;3.20;1.30;;;;;;;28.39;34.83;101878.34;10456491;28;20124;-67
2022/07/02 14:11:02;;;;;;;1.55;0.82;;;;;;;27.35;35.30;101890.56;10453949;28;20116;-67
2022/07/02 14:16:03;;;;;;;4.13;1.13;;;;;;;27.85;35.86;101882.19;10476511;28;20048;-67
2022/07/02 14:21:04;;;;;;;2.38;1.27;;;;;;;27.59;35.66;101871.19;10464614;28;20029;-67
2022/07/02 14:26:05;;;;;;;8.18;1.52;;;;;;;28.66;36.32;101860.28;10462384;28;20400;-67
2022/07/02 14:31:05;;;;;;;0.82;0.82;;;;;;;29.24;33.75;101860.09;10465539;28;20048;-68
2022/07/02 14:36:05;;;;;;;1.92;1.05;;;;;;;28.73;33.95;101863.53;10467807;28;20561;-70
2022/07/02 14:51:28;;;;;;;2.72;1.55;;;;;;;27.47;35.78;101864.34;10462847;28;20074;-69
2022/07/02 14:56:29;;;;;;;4.03;1.67;;;;;;;26.64;36.38;101865.81;10478296;28;20057;-69
2022/07/02 15:01:29;;;;;;;1.58;1.48;;;;;;;26.39;36.35;101867.53;10461312;28;20049;-69
2022/07/02 15:06:30;;;;;;;1.42;1.33;;;;;;;25.94;36.02;101865.59;10463687;28;20040;-69
2022/07/02 15:11:30;;;;;;;1.00;1.00;;;;;;;25.75;37.50;101868.91;10461885;28;20455;-70
2022/07/02 15:16:31;;;;;;;4.38;1.58;;;;;;;25.99;37.19;101854.50;10460064;28;20349;-70
2022/07/02 15:21:34;;;;;;;0.82;0.82;;;;;;;25.37;38.40;101856.38;10461511;28;20106;-69
2022/07/02 15:26:36;;;;;;;3.28;2.22;;;;;;;25.35;39.10;101854.97;10459618;28;20028;-68
2022/07/02 15:31:41;;;;;;;2.55;2.05;;;;;;;25.74;39.01;101849.75;10477527;28;20040;-70
2022/07/02 15:36:41;;;;;;;4.00;2.22;;;;;;;26.49;38.39;101849.19;10459949;28;20040;-70
2022/07/02 15:41:42;;;;;;;2.35;2.15;;;;;;;26.07;37.95;101851.19;10459937;28;20313;-69
2022/07/02 15:46:42;;;;;;;2.38;2.17;;;;;;;26.12;37.36;101842.84;10445023;28;20029;-70
2022/07/02 15:51:43;;;;;;;2.42;2.03;;;;;;;25.81;38.40;101835.63;10476486;28;20376;-70
2022/07/02 15:56:46;;;;;;;1.52;1.45;;;;;;;25.83;38.50;101828.69;10462431;28;20032;-69
2022/07/02 16:01:54;;;;;;;3.10;2.38;;;;;;;25.78;39.02;101834.22;10467844;28;20055;-69
2022/07/02 16:06:54;;;;;;;1.95;1.83;;;;;;;25.32;38.94;101828.63;10462937;28;20021;-70
2022/07/02 16:11:55;;;;;;;1.42;1.33;;;;;;;25.04;39.84;101827.13;10460158;28;20033;-70
2022/07/02 16:16:55;;;;;;;2.35;1.80;;;;;;;24.57;40.89;101820.59;10461111;28;20104;-69
2022/07/02 16:21:56;;;;;;;2.42;1.75;;;;;;;24.21;41.35;101825.03;10441877;28;20140;-69
2022/07/02 16:26:56;;;;;;;2.50;1.58;;;;;;;24.12;41.87;101824.72;10459457;28;20072;-70
2022/07/02 16:32:00;;;;;;;5.88;1.85;;;;;;;24.08;42.53;101823.56;10459250;28;20128;-70
2022/07/02 16:37:08;;;;;;;2.72;1.55;;;;;;;23.98;42.71;101812.41;10456848;28;20033;-69
2022/07/02 16:42:09;;;;;;;1.35;1.27;;;;;;;23.73;42.99;101823.28;10441260;28;20021;-70
2022/07/02 16:47:12;;;;;;;3.78;2.03;;;;;;;23.37;44.14;101823.75;10459809;28;20040;-69
2022/07/02 16:52:12;;;;;;;3.17;1.27;;;;;;;23.11;44.30;101819.88;10456605;28;20041;-69
2022/07/02 16:57:13;;;;;;;2.33;1.42;;;;;;;22.96;44.31;101823.28;10462150;28;20415;-69
2022/07/02 17:02:20;;;;;;;4.72;1.83;;;;;;;22.84;45.82;101825.31;10479350;28;20048;-70
2022/07/02 17:07:20;;;;;;;1.75;1.40;;;;;;;22.82;45.53;101819.25;10458658;28;20114;-69
2022/07/02 17:12:20;;;;;;;2.08;1.52;;;;;;;22.77;45.48;101815.56;10459782;28;20107;-70
2022/07/02 17:17:21;;;;;;;9.60;2.40;;;;;;;22.64;45.41;101801.06;10462247;28;20025;-69
2022/07/02 17:22:21;;;;;;;5.05;1.85;;;;;;;22.68;45.42;101804.97;10456952;28;20029;-69
2022/07/02 17:27:22;;;;;;;1.80;1.70;;;;;;;22.70;45.27;101790.91;10457676;28;20036;-69
2022/07/02 17:32:22;;;;;;;1.77;1.50;;;;;;;22.73;45.42;101798.69;10459670;28;20029;-69
2022/07/02 17:37:22;;;;;;;2.30;1.33;;;;;;;22.74;45.59;101800.34;10471544;28;20021;-70
2022/07/02 17:42:23;;;;;;;5.50;1.92;;;;;;;22.78;45.46;101804.25;10474877;28;20495;-69
2022/07/02 17:47:23;;;;;;;1.10;1.10;;;;;;;22.68;45.62;101804.97;10474019;28;20074;-69
2022/07/02 17:52:24;;;;;;;1.42;1.20;;;;;;;22.58;45.65;101788.28;10474885;28;20032;-68
2022/07/02 17:57:24;;;;;;;0.98;0.98;;;;;;;22.52;45.74;101790.13;10472781;28;20089;-69
2022/07/02 18:02:24;;;;;;;1.33;1.27;;;;;;;22.50;45.47;101786.81;10472927;28;20045;-70
2022/07/02 18:07:25;;;;;;;5.72;1.27;;;;;;;22.40;45.72;101783.91;10470643;28;20376;-72
2022/07/02 18:12:25;;;;;;;1.98;1.20;;;;;;;22.23;46.06;101777.59;10469753;28;20079;-69
2022/07/02 18:17:25;;;;;;;1.38;1.27;;;;;;;22.07;45.75;101773.75;10472991;28;20045;-70
2022/07/02 18:22:26;;;;;;;3.35;2.15;;;;;;;22.00;46.01;101762.06;10472566;28;20028;-70
2022/07/02 18:27:26;;;;;;;1.67;1.60;;;;;;;21.89;45.99;101750.03;10466855;28;20037;-70
2022/07/02 18:32:27;;;;;;;1.50;1.40;;;;;;;21.79;46.25;101760.91;10469564;28;20475;-69
2022/07/02 18:37:27;;;;;;;3.72;1.33;;;;;;;21.69;46.43;101769.84;10469080;28;20033;-70
2022/07/02 18:42:28;;;;;;;1.27;1.25;;;;;;;21.58;46.58;101779.88;10464148;28;20055;-69
2022/07/02 18:47:28;;;;;;;1.30;1.25;;;;;;;21.49;46.74;101775.03;10464207;28;20357;-71
2022/07/02 18:52:29;;;;;;;5.97;1.40;;;;;;;21.42;46.94;101768.84;10462054;28;20029;-69
2022/07/02 18:57:29;;;;;;;3.40;1.23;;;;;;;21.42;46.81;101766.09;10463681;28;20035;-70
2022/07/02 19:02:30;;;;;;;5.05;1.20;;;;;;;21.43;46.63;101760.31;10483800;28;20342;-69
2022/07/02 19:07:30;;;;;;;5.93;1.95;;;;;;;21.51;46.64;101768.19;10465833;28;20099;-71
2022/07/02 19:12:30;;;;;;;2.47;1.20;;;;;;;21.44;46.92;101762.00;10461931;28;20110;-70
2022/07/02 19:17:31;;;;;;;1.70;1.60;;;;;;;21.29;47.07;101772.72;10461902;28;20056;-71
2022/07/02 19:22:31;;;;;;;2.72;1.67;;;;;;;21.27;47.32;101770.19;10467216;28;20456;-70
2022/07/02 19:32:52;;;;;;;4.57;1.23;;;;;;;21.22;47.35;101761.00;10475157;28;20032;-70
2022/07/02 19:37:52;;;;;;;9.98;2.17;;;;;;;21.19;47.23;101761.53;10443759;28;20033;-69
2022/07/02 19:42:53;;;;;;;4.95;2.60;;;;;;;21.05;47.75;101764.56;10443184;28;20029;-70
2022/07/02 19:47:55;;;;;;;1.75;1.52;;;;;;;20.93;48.17;101765.69;10460972;28;20021;-69
2022/07/02 19:52:55;;;;;;;3.10;1.83;;;;;;;20.96;47.91;101766.03;10476962;28;20122;-71
2022/07/02 19:57:56;;;;;;;5.47;1.85;;;;;;;20.90;48.18;101762.34;10468316;28;20032;-70
2022/07/02 20:02:56;;;;;;;1.48;1.38;;;;;;;20.83;48.03;101763.56;10465424;28;20087;-71
2022/07/02 20:07:57;;;;;;;1.20;1.20;;;;;;;20.76;48.02;101769.22;10463592;28;20055;-69
2022/07/02 20:12:57;;;;;;;4.28;2.38;;;;;;;20.69;48.45;101764.94;10459568;28;20103;-70
2022/07/02 20:17:59;;;;;;;2.92;1.58;;;;;;;20.51;48.58;101766.78;10459383;28;20059;-70
2022/07/02 20:23:00;;;;;;;4.97;2.28;;;;;;;20.41;48.62;101769.28;10459810;28;20039;-69
2022/07/02 20:28:01;;;;;;;1.77;1.20;;;;;;;20.35;48.84;101773.00;10460008;28;20036;-70
2022/07/02 20:33:01;;;;;;;7.35;1.85;;;;;;;20.30;48.87;101772.91;10460687;28;20025;-72
2022/07/02 20:38:02;;;;;;;2.78;2.17;;;;;;;20.24;48.95;101776.63;10460812;28;20037;-70
2022/07/02 20:43:02;;;;;;;3.42;2.33;;;;;;;20.13;49.45;101781.03;10465648;28;20025;-70
2022/07/02 20:48:03;;;;;;;2.80;2.00;;;;;;;20.09;49.33;101788.09;10482252;28;20029;-69
2022/07/02 20:53:03;;;;;;;5.65;2.42;;;;;;;20.02;49.67;101788.22;10462047;28;20094;-69
2022/07/02 20:58:03;;;;;;;9.70;4.85;;;;;;;19.95;49.57;101784.75;10458432;28;20094;-70
2022/07/02 21:03:04;;;;;;;1.73;1.48;;;;;;;19.79;49.83;101783.53;10456960;28;20467;-72
2022/07/02 21:08:04;;;;;;;1.92;1.83;;;;;;;19.56;50.54;101781.56;10459851;28;20032;-71
2022/07/02 21:13:05;;;;;;;1.20;1.20;;;;;;;19.39;50.75;101767.66;10459128;28;20040;-73
2022/07/02 21:18:05;;;;;;;7.10;1.95;;;;;;;19.32;50.98;101777.09;10458161;28;20076;-71
2022/07/02 21:23:06;;;;;;;6.28;3.95;;;;;;;19.19;51.54;101781.69;10459175;28;20025;-72
2022/07/02 21:28:06;;;;;;;4.07;2.22;;;;;;;19.13;51.27;101784.53;10459561;28;20130;-72
2022/07/02 21:33:07;;;;;;;5.15;1.65;;;;;;;19.05;51.48;101785.72;10457621;28;20025;-72
2022/07/02 21:38:07;;;;;;;6.68;2.22;;;;;;;18.98;51.66;101793.19;10457289;28;20368;-73
2022/07/02 21:43:07;;;;;;;2.42;2.22;;;;;;;18.92;51.99;101785.88;10458577;28;20024;-67
2022/07/02 21:48:08;;;;;;;2.30;2.08;;;;;;;18.77;52.28;101781.63;10462063;28;20162;-69
2022/07/02 21:53:08;;;;;;;3.40;2.22;;;;;;;18.61;52.77;101774.00;10462955;28;20029;-68
2022/07/02 21:58:08;;;;;;;2.03;1.70;;;;;;;18.44;53.64;101761.94;10457140;28;20060;-68
2022/07/02 22:03:09;;;;;;;2.28;2.13;;;;;;;18.18;53.94;101744.72;10456658;28;20049;-68
2022/07/02 22:08:09;;;;;;;7.70;2.25;;;;;;;18.13;54.05;101752.81;10455916;28;20111;-68
2022/07/02 22:13:10;;;;;;;2.75;2.10;;;;;;;17.94;54.59;101753.88;10458427;28;20063;-68
2022/07/02 22:18:10;;;;;;;4.00;3.10;;;;;;;17.78;54.88;101763.50;10457487;28;20072;-69
2022/07/02 22:23:10;;;;;;;3.45;2.88;;;;;;;17.67;55.06;101754.88;10456850;28;20071;-69
2022/07/02 22:28:11;;;;;;;6.80;2.63;;;;;;;17.58;55.27;101763.59;10471779;28;20484;-69
2022/07/02 22:33:11;;;;;;;5.18;2.83;;;;;;;17.44;55.69;101760.97;10456087;28;20116;-68
2022/07/02 22:38:12;;;;;;;2.17;2.00;;;;;;;17.34;56.37;101760.63;10462346;28;20025;-68
2022/07/02 22:43:13;;;;;;;3.92;2.40;;;;;;;17.29;56.91;101768.66;10479301;28;20032;-69
2022/07/02 22:48:14;;;;;;;3.25;2.58;;;;;;;17.26;57.05;101768.28;10463571;28;20075;-69
2022/07/02 22:53:14;;;;;;;3.50;2.75;;;;;;;17.24;57.47;101764.94;10463501;28;20032;-68
2022/07/02 22:58:16;;;;;;;2.17;1.80;;;;;;;17.27;58.41;101750.81;10478851;28;20033;-68
2022/07/02 23:03:17;;;;;;;2.53;1.92;;;;;;;17.37;58.51;101757.47;10463382;28;20369;-66
2022/07/02 23:08:19;;;;;;;4.43;2.25;;;;;;;17.40;59.15;101759.75;10461996;28;20041;-68
2022/07/02 23:13:20;;;;;;;4.35;2.72;;;;;;;17.52;59.49;101764.53;10477319;28;20036;-69